sensor_id;sensor_type;location;lat;lon;timestamp;pressure;altitude;pressure_sealevel;temperature;humidity
64551;BME280;50945;44.472;-123.352;2023-04-19T00:01:18;100337.56;;;8.53;79.72
64551;BME280;50945;44.472;-123.352;2023-04-19T00:03:45;100340.09;;;8.71;79.93
64551;BME280;50945;44.472;-123.352;2023-04-19T00:06:11;100329.53;;;8.76;78.27
64551;BME280;50945;44.472;-123.352;2023-04-19T00:08:40;100329.66;;;8.83;78.32
64551;BME280;50945;44.472;-123.352;2023-04-19T00:11:09;100330.66;;;8.90;77.74
64551;BME280;50945;44.472;-123.352;2023-04-19T00:13:35;100326.91;;;8.99;77.77
64551;BME280;50945;44.472;-123.352;2023-04-19T00:16:01;100318.75;;;8.99;76.12
64551;BME280;50945;44.472;-123.352;2023-04-19T00:18:28;100324.19;;;8.99;76.06
64551;BME280;50945;44.472;-123.352;2023-04-19T00:20:54;100321.97;;;9.03;75.94
64551;BME280;50945;44.472;-123.352;2023-04-19T00:23:20;100333.22;;;9.00;74.00
64551;BME280;50945;44.472;-123.352;2023-04-19T00:25:47;100320.41;;;9.00;74.08
64551;BME280;50945;44.472;-123.352;2023-04-19T00:28:14;100318.84;;;9.06;75.60
64551;BME280;50945;44.472;-123.352;2023-04-19T00:30:40;100327.19;;;9.12;76.72
64551;BME280;50945;44.472;-123.352;2023-04-19T00:33:06;100331.25;;;9.17;75.40
64551;BME280;50945;44.472;-123.352;2023-04-19T00:35:41;100327.00;;;9.22;75.31
64551;BME280;50945;44.472;-123.352;2023-04-19T00:38:07;100331.56;;;9.30;74.87
64551;BME280;50945;44.472;-123.352;2023-04-19T00:40:34;100325.03;;;9.39;75.38
64551;BME280;50945;44.472;-123.352;2023-04-19T00:43:00;100333.22;;;9.39;72.19
64551;BME280;50945;44.472;-123.352;2023-04-19T00:45:28;100324.03;;;9.40;74.44
64551;BME280;50945;44.472;-123.352;2023-04-19T00:47:56;100325.03;;;9.39;74.21
64551;BME280;50945;44.472;-123.352;2023-04-19T00:50:22;100319.41;;;9.41;74.15
64551;BME280;50945;44.472;-123.352;2023-04-19T00:52:48;100317.16;;;9.44;74.73
64551;BME280;50945;44.472;-123.352;2023-04-19T00:55:16;100325.84;;;9.48;74.42
64551;BME280;50945;44.472;-123.352;2023-04-19T00:57:43;100334.59;;;9.43;73.74
64551;BME280;50945;44.472;-123.352;2023-04-19T01:00:09;100314.47;;;9.36;73.98
64551;BME280;50945;44.472;-123.352;2023-04-19T01:02:36;100310.75;;;9.29;74.13
64551;BME280;50945;44.472;-123.352;2023-04-19T01:05:02;100312.16;;;9.25;74.27
64551;BME280;50945;44.472;-123.352;2023-04-19T01:07:29;100324.97;;;9.16;74.28
64551;BME280;50945;44.472;-123.352;2023-04-19T01:09:55;100332.53;;;8.98;74.37
64551;BME280;50945;44.472;-123.352;2023-04-19T01:12:23;100329.88;;;8.81;75.02
64551;BME280;50945;44.472;-123.352;2023-04-19T01:14:52;100334.16;;;8.67;73.92
64551;BME280;50945;44.472;-123.352;2023-04-19T01:17:18;100327.84;;;8.59;75.11
64551;BME280;50945;44.472;-123.352;2023-04-19T01:19:45;100337.91;;;8.50;74.78
64551;BME280;50945;44.472;-123.352;2023-04-19T01:22:19;100335.16;;;8.42;75.33
64551;BME280;50945;44.472;-123.352;2023-04-19T01:24:47;100330.22;;;8.37;75.47
64551;BME280;50945;44.472;-123.352;2023-04-19T01:27:13;100330.41;;;8.35;76.25
64551;BME280;50945;44.472;-123.352;2023-04-19T01:29:44;100333.28;;;8.34;75.90
64551;BME280;50945;44.472;-123.352;2023-04-19T01:32:10;100342.13;;;8.28;75.87
64551;BME280;50945;44.472;-123.352;2023-04-19T01:34:39;100340.94;;;8.22;75.73
64551;BME280;50945;44.472;-123.352;2023-04-19T01:37:07;100349.81;;;8.16;75.37
64551;BME280;50945;44.472;-123.352;2023-04-19T01:39:33;100347.75;;;8.10;75.71
64551;BME280;50945;44.472;-123.352;2023-04-19T01:42:00;100350.31;;;8.03;76.40
64551;BME280;50945;44.472;-123.352;2023-04-19T01:44:26;100344.84;;;7.95;76.52
64551;BME280;50945;44.472;-123.352;2023-04-19T01:46:55;100348.06;;;7.90;76.58
64551;BME280;50945;44.472;-123.352;2023-04-19T01:49:21;100356.75;;;7.86;76.68
64551;BME280;50945;44.472;-123.352;2023-04-19T01:51:48;100359.78;;;7.83;76.69
64551;BME280;50945;44.472;-123.352;2023-04-19T01:54:15;100354.81;;;7.78;76.52
64551;BME280;50945;44.472;-123.352;2023-04-19T01:56:41;100356.19;;;7.74;77.15
64551;BME280;50945;44.472;-123.352;2023-04-19T01:59:11;100349.03;;;7.65;77.20
64551;BME280;50945;44.472;-123.352;2023-04-19T02:01:37;100348.50;;;7.61;77.98
64551;BME280;50945;44.472;-123.352;2023-04-19T02:04:03;100352.41;;;7.58;78.11
64551;BME280;50945;44.472;-123.352;2023-04-19T02:06:31;100346.44;;;7.55;78.65
64551;BME280;50945;44.472;-123.352;2023-04-19T02:08:58;100344.06;;;7.52;78.72
64551;BME280;50945;44.472;-123.352;2023-04-19T02:11:24;100333.50;;;7.49;78.94
64551;BME280;50945;44.472;-123.352;2023-04-19T02:13:52;100330.44;;;7.43;78.77
64551;BME280;50945;44.472;-123.352;2023-04-19T02:16:18;100332.94;;;7.37;79.17
64551;BME280;50945;44.472;-123.352;2023-04-19T02:18:44;100332.28;;;7.35;79.15
64551;BME280;50945;44.472;-123.352;2023-04-19T02:21:11;100321.91;;;7.30;79.58
64551;BME280;50945;44.472;-123.352;2023-04-19T02:23:37;100321.38;;;7.27;79.54
64551;BME280;50945;44.472;-123.352;2023-04-19T02:26:04;100333.06;;;7.19;79.23
64551;BME280;50945;44.472;-123.352;2023-04-19T02:28:32;100326.56;;;7.12;79.40
64551;BME280;50945;44.472;-123.352;2023-04-19T02:31:03;100328.06;;;7.06;79.97
64551;BME280;50945;44.472;-123.352;2023-04-19T02:33:29;100333.31;;;6.99;80.21
64551;BME280;50945;44.472;-123.352;2023-04-19T02:35:56;100332.78;;;6.96;80.15
64551;BME280;50945;44.472;-123.352;2023-04-19T02:38:23;100334.13;;;6.92;80.92
64551;BME280;50945;44.472;-123.352;2023-04-19T02:40:49;100339.88;;;6.89;81.05
64551;BME280;50945;44.472;-123.352;2023-04-19T02:43:15;100339.66;;;6.82;80.94
64551;BME280;50945;44.472;-123.352;2023-04-19T02:45:41;100335.03;;;6.74;80.98
64551;BME280;50945;44.472;-123.352;2023-04-19T02:48:08;100344.53;;;6.70;81.06
64551;BME280;50945;44.472;-123.352;2023-04-19T02:50:37;100346.03;;;6.64;80.87
64551;BME280;50945;44.472;-123.352;2023-04-19T02:53:03;100350.06;;;6.60;81.04
64551;BME280;50945;44.472;-123.352;2023-04-19T02:55:29;100336.81;;;6.57;81.28
64551;BME280;50945;44.472;-123.352;2023-04-19T02:57:55;100341.53;;;6.55;81.71
64551;BME280;50945;44.472;-123.352;2023-04-19T03:00:22;100342.72;;;6.53;81.94
64551;BME280;50945;44.472;-123.352;2023-04-19T03:02:51;100344.88;;;6.49;81.51
64551;BME280;50945;44.472;-123.352;2023-04-19T03:05:17;100345.19;;;6.46;81.64
64551;BME280;50945;44.472;-123.352;2023-04-19T03:07:43;100352.66;;;6.44;81.98
64551;BME280;50945;44.472;-123.352;2023-04-19T03:10:11;100355.84;;;6.39;81.75
64551;BME280;50945;44.472;-123.352;2023-04-19T03:12:37;100360.88;;;6.34;82.13
64551;BME280;50945;44.472;-123.352;2023-04-19T03:15:04;100351.50;;;6.28;82.12
64551;BME280;50945;44.472;-123.352;2023-04-19T03:17:30;100355.00;;;6.21;82.92
64551;BME280;50945;44.472;-123.352;2023-04-19T03:19:57;100362.47;;;6.19;82.17
64551;BME280;50945;44.472;-123.352;2023-04-19T03:22:23;100356.66;;;6.14;82.21
64551;BME280;50945;44.472;-123.352;2023-04-19T03:24:51;100362.38;;;6.11;82.04
64551;BME280;50945;44.472;-123.352;2023-04-19T03:27:20;100367.25;;;6.07;82.41
64551;BME280;50945;44.472;-123.352;2023-04-19T03:29:46;100362.31;;;6.02;82.46
64551;BME280;50945;44.472;-123.352;2023-04-19T03:32:14;100375.34;;;5.99;82.54
64551;BME280;50945;44.472;-123.352;2023-04-19T03:34:40;100373.78;;;5.96;82.65
64551;BME280;50945;44.472;-123.352;2023-04-19T03:37:06;100372.50;;;5.90;82.70
64551;BME280;50945;44.472;-123.352;2023-04-19T03:39:33;100378.38;;;5.86;82.93
64551;BME280;50945;44.472;-123.352;2023-04-19T03:41:59;100380.41;;;5.84;83.25
64551;BME280;50945;44.472;-123.352;2023-04-19T03:44:26;100387.31;;;5.78;83.05
64551;BME280;50945;44.472;-123.352;2023-04-19T03:46:52;100388.63;;;5.74;82.98
64551;BME280;50945;44.472;-123.352;2023-04-19T03:49:18;100395.34;;;5.70;83.29
64551;BME280;50945;44.472;-123.352;2023-04-19T03:51:44;100397.81;;;5.63;83.22
64551;BME280;50945;44.472;-123.352;2023-04-19T03:54:11;100399.72;;;5.53;83.29
64551;BME280;50945;44.472;-123.352;2023-04-19T03:56:38;100399.63;;;5.45;83.76
64551;BME280;50945;44.472;-123.352;2023-04-19T03:59:05;100396.66;;;5.38;84.15
64551;BME280;50945;44.472;-123.352;2023-04-19T04:01:32;100393.38;;;5.34;83.71
64551;BME280;50945;44.472;-123.352;2023-04-19T04:03:58;100397.56;;;5.29;85.52
64551;BME280;50945;44.472;-123.352;2023-04-19T04:06:24;100396.84;;;5.27;84.44
64551;BME280;50945;44.472;-123.352;2023-04-19T04:08:53;100397.16;;;5.24;84.00
64551;BME280;50945;44.472;-123.352;2023-04-19T04:11:19;100392.34;;;5.18;84.17
64551;BME280;50945;44.472;-123.352;2023-04-19T04:13:47;100392.22;;;5.09;84.20
64551;BME280;50945;44.472;-123.352;2023-04-19T04:16:15;100397.53;;;5.01;84.51
64551;BME280;50945;44.472;-123.352;2023-04-19T04:18:43;100404.22;;;4.97;84.99
64551;BME280;50945;44.472;-123.352;2023-04-19T04:21:11;100417.53;;;4.90;84.76
64551;BME280;50945;44.472;-123.352;2023-04-19T04:23:37;100413.38;;;4.86;85.25
64551;BME280;50945;44.472;-123.352;2023-04-19T04:26:05;100411.84;;;4.84;84.95
64551;BME280;50945;44.472;-123.352;2023-04-19T04:28:34;100413.84;;;4.82;84.81
64551;BME280;50945;44.472;-123.352;2023-04-19T04:31:01;100413.56;;;4.75;85.02
64551;BME280;50945;44.472;-123.352;2023-04-19T04:33:27;100417.72;;;4.69;85.46
64551;BME280;50945;44.472;-123.352;2023-04-19T04:35:54;100411.75;;;4.66;85.64
64551;BME280;50945;44.472;-123.352;2023-04-19T04:38:22;100401.19;;;4.63;85.69
64551;BME280;50945;44.472;-123.352;2023-04-19T04:40:53;100405.91;;;4.61;85.70
64551;BME280;50945;44.472;-123.352;2023-04-19T04:43:22;100409.03;;;4.56;85.74
64551;BME280;50945;44.472;-123.352;2023-04-19T04:45:50;100412.91;;;4.53;85.83
64551;BME280;50945;44.472;-123.352;2023-04-19T04:48:16;100408.47;;;4.52;85.97
64551;BME280;50945;44.472;-123.352;2023-04-19T04:50:43;100412.31;;;4.50;86.16
64551;BME280;50945;44.472;-123.352;2023-04-19T04:53:12;100410.47;;;4.50;86.30
64551;BME280;50945;44.472;-123.352;2023-04-19T04:55:38;100415.03;;;4.50;86.18
64551;BME280;50945;44.472;-123.352;2023-04-19T04:58:06;100413.19;;;4.50;86.42
64551;BME280;50945;44.472;-123.352;2023-04-19T05:00:32;100408.91;;;4.48;86.41
64551;BME280;50945;44.472;-123.352;2023-04-19T05:02:59;100408.91;;;4.48;86.29
64551;BME280;50945;44.472;-123.352;2023-04-19T05:05:26;100405.34;;;4.47;86.01
64551;BME280;50945;44.472;-123.352;2023-04-19T05:07:53;100409.91;;;4.47;86.22
64551;BME280;50945;44.472;-123.352;2023-04-19T05:10:19;100407.47;;;4.44;85.87
64551;BME280;50945;44.472;-123.352;2023-04-19T05:12:45;100402.50;;;4.39;86.64
64551;BME280;50945;44.472;-123.352;2023-04-19T05:15:12;100412.78;;;4.35;86.40
64551;BME280;50945;44.472;-123.352;2023-04-19T05:17:38;100407.50;;;4.34;86.63
64551;BME280;50945;44.472;-123.352;2023-04-19T05:20:04;100411.19;;;4.33;86.80
64551;BME280;50945;44.472;-123.352;2023-04-19T05:22:31;100403.06;;;4.33;86.80
64551;BME280;50945;44.472;-123.352;2023-04-19T05:24:57;100415.63;;;4.34;86.26
64551;BME280;50945;44.472;-123.352;2023-04-19T05:27:23;100412.91;;;4.34;86.27
64551;BME280;50945;44.472;-123.352;2023-04-19T05:29:49;100420.16;;;4.33;86.40
64551;BME280;50945;44.472;-123.352;2023-04-19T05:32:16;100424.72;;;4.33;86.10
64551;BME280;50945;44.472;-123.352;2023-04-19T05:34:42;100423.03;;;4.32;86.40
64551;BME280;50945;44.472;-123.352;2023-04-19T05:37:08;100415.75;;;4.32;86.50
64551;BME280;50945;44.472;-123.352;2023-04-19T05:39:35;100435.41;;;4.34;86.15
64551;BME280;50945;44.472;-123.352;2023-04-19T05:42:01;100434.41;;;4.35;86.08
64551;BME280;50945;44.472;-123.352;2023-04-19T05:44:27;100438.81;;;4.36;85.99
64551;BME280;50945;44.472;-123.352;2023-04-19T05:46:53;100441.38;;;4.38;86.39
64551;BME280;50945;44.472;-123.352;2023-04-19T05:49:19;100441.53;;;4.36;86.19
64551;BME280;50945;44.472;-123.352;2023-04-19T05:51:46;100439.09;;;4.33;85.87
64551;BME280;50945;44.472;-123.352;2023-04-19T05:54:12;100432.97;;;4.31;86.17
64551;BME280;50945;44.472;-123.352;2023-04-19T05:56:39;100429.56;;;4.29;86.07
64551;BME280;50945;44.472;-123.352;2023-04-19T05:59:05;100427.00;;;4.28;86.33
64551;BME280;50945;44.472;-123.352;2023-04-19T06:01:32;100439.53;;;4.29;85.67
64551;BME280;50945;44.472;-123.352;2023-04-19T06:03:59;100425.44;;;4.25;86.80
64551;BME280;50945;44.472;-123.352;2023-04-19T06:06:25;100432.84;;;4.23;86.16
64551;BME280;50945;44.472;-123.352;2023-04-19T06:08:53;100432.16;;;4.21;85.83
64551;BME280;50945;44.472;-123.352;2023-04-19T06:11:19;100426.72;;;4.21;86.07
64551;BME280;50945;44.472;-123.352;2023-04-19T06:13:45;100433.97;;;4.21;85.80
64551;BME280;50945;44.472;-123.352;2023-04-19T06:16:12;100439.53;;;4.19;85.78
64551;BME280;50945;44.472;-123.352;2023-04-19T06:18:38;100433.53;;;4.15;85.47
64551;BME280;50945;44.472;-123.352;2023-04-19T06:21:04;100431.13;;;4.12;86.14
64551;BME280;50945;44.472;-123.352;2023-04-19T06:23:30;100440.50;;;4.08;85.83
64551;BME280;50945;44.472;-123.352;2023-04-19T06:25:57;100429.81;;;4.07;86.19
64551;BME280;50945;44.472;-123.352;2023-04-19T06:28:23;100424.59;;;4.05;86.02
64551;BME280;50945;44.472;-123.352;2023-04-19T06:30:49;100430.97;;;4.04;86.71
64551;BME280;50945;44.472;-123.352;2023-04-19T06:33:15;100442.78;;;4.03;86.34
64551;BME280;50945;44.472;-123.352;2023-04-19T06:35:41;100436.66;;;4.01;86.51
64551;BME280;50945;44.472;-123.352;2023-04-19T06:38:08;100442.22;;;3.99;86.64
64551;BME280;50945;44.472;-123.352;2023-04-19T06:40:34;100436.97;;;3.98;86.74
64551;BME280;50945;44.472;-123.352;2023-04-19T06:43:00;100440.50;;;3.98;87.18
64551;BME280;50945;44.472;-123.352;2023-04-19T06:45:26;100437.94;;;3.97;86.79
64551;BME280;50945;44.472;-123.352;2023-04-19T06:47:52;100438.94;;;3.96;86.65
64551;BME280;50945;44.472;-123.352;2023-04-19T06:50:18;100444.34;;;3.96;86.25
64551;BME280;50945;44.472;-123.352;2023-04-19T06:52:44;100443.75;;;3.92;86.62
64551;BME280;50945;44.472;-123.352;2023-04-19T06:55:11;100446.59;;;3.91;86.75
64551;BME280;50945;44.472;-123.352;2023-04-19T06:57:37;100445.75;;;3.90;86.61
64551;BME280;50945;44.472;-123.352;2023-04-19T07:00:03;100453.72;;;3.92;86.92
64551;BME280;50945;44.472;-123.352;2023-04-19T07:02:31;100455.16;;;3.96;86.86
64551;BME280;50945;44.472;-123.352;2023-04-19T07:04:57;100443.22;;;3.98;87.43
64551;BME280;50945;44.472;-123.352;2023-04-19T07:07:23;100450.19;;;4.01;87.07
64551;BME280;50945;44.472;-123.352;2023-04-19T07:09:49;100443.09;;;4.00;87.08
64551;BME280;50945;44.472;-123.352;2023-04-19T07:12:15;100449.34;;;4.00;86.37
64551;BME280;50945;44.472;-123.352;2023-04-19T07:14:42;100442.38;;;3.98;86.53
64551;BME280;50945;44.472;-123.352;2023-04-19T07:17:08;100432.09;;;3.92;86.54
64551;BME280;50945;44.472;-123.352;2023-04-19T07:19:34;100431.38;;;3.90;86.70
64551;BME280;50945;44.472;-123.352;2023-04-19T07:22:01;100421.69;;;3.87;86.16
64551;BME280;50945;44.472;-123.352;2023-04-19T07:24:28;100422.84;;;3.85;86.38
64551;BME280;50945;44.472;-123.352;2023-04-19T07:26:55;100419.81;;;3.78;86.53
64551;BME280;50945;44.472;-123.352;2023-04-19T07:29:22;100410.28;;;3.74;87.01
64551;BME280;50945;44.472;-123.352;2023-04-19T07:31:48;100426.66;;;3.72;86.94
64551;BME280;50945;44.472;-123.352;2023-04-19T07:34:14;100434.31;;;3.67;87.67
64551;BME280;50945;44.472;-123.352;2023-04-19T07:36:40;100439.00;;;3.65;87.93
64551;BME280;50945;44.472;-123.352;2023-04-19T07:39:06;100435.59;;;3.63;87.74
64551;BME280;50945;44.472;-123.352;2023-04-19T07:41:32;100439.28;;;3.62;88.03
64551;BME280;50945;44.472;-123.352;2023-04-19T07:43:59;100443.00;;;3.61;87.91
64551;BME280;50945;44.472;-123.352;2023-04-19T07:46:25;100451.25;;;3.59;88.37
64551;BME280;50945;44.472;-123.352;2023-04-19T07:48:51;100442.41;;;3.57;88.14
64551;BME280;50945;44.472;-123.352;2023-04-19T07:51:17;100441.53;;;3.57;88.21
64551;BME280;50945;44.472;-123.352;2023-04-19T07:53:45;100440.69;;;3.56;87.83
64551;BME280;50945;44.472;-123.352;2023-04-19T07:56:12;100441.69;;;3.55;88.16
64551;BME280;50945;44.472;-123.352;2023-04-19T07:58:40;100443.53;;;3.55;88.08
64551;BME280;50945;44.472;-123.352;2023-04-19T08:01:06;100448.94;;;3.55;87.55
64551;BME280;50945;44.472;-123.352;2023-04-19T08:03:33;100440.81;;;3.55;87.37
64551;BME280;50945;44.472;-123.352;2023-04-19T08:06:03;100433.44;;;3.57;87.41
64551;BME280;50945;44.472;-123.352;2023-04-19T08:08:30;100443.13;;;3.59;87.77
64551;BME280;50945;44.472;-123.352;2023-04-19T08:10:56;100452.53;;;3.65;87.85
64551;BME280;50945;44.472;-123.352;2023-04-19T08:13:22;100448.56;;;3.69;86.97
64551;BME280;50945;44.472;-123.352;2023-04-19T08:15:49;100444.47;;;3.75;87.53
64551;BME280;50945;44.472;-123.352;2023-04-19T08:18:15;100449.72;;;3.76;86.89
64551;BME280;50945;44.472;-123.352;2023-04-19T08:20:41;100461.97;;;3.80;87.26
64551;BME280;50945;44.472;-123.352;2023-04-19T08:23:08;100469.78;;;3.84;87.15
64551;BME280;50945;44.472;-123.352;2023-04-19T08:25:34;100474.09;;;3.86;87.39
64551;BME280;50945;44.472;-123.352;2023-04-19T08:28:01;100477.50;;;3.88;86.89
64551;BME280;50945;44.472;-123.352;2023-04-19T08:30:27;100463.84;;;3.90;87.08
64551;BME280;50945;44.472;-123.352;2023-04-19T08:32:53;100470.09;;;3.90;86.84
64551;BME280;50945;44.472;-123.352;2023-04-19T08:35:19;100472.94;;;3.89;86.87
64551;BME280;50945;44.472;-123.352;2023-04-19T08:37:46;100459.00;;;3.93;87.17
64551;BME280;50945;44.472;-123.352;2023-04-19T08:40:13;100465.13;;;3.95;86.76
64551;BME280;50945;44.472;-123.352;2023-04-19T08:42:42;100468.53;;;3.97;86.49
64551;BME280;50945;44.472;-123.352;2023-04-19T08:45:08;100462.16;;;3.98;86.95
64551;BME280;50945;44.472;-123.352;2023-04-19T08:47:40;100455.72;;;3.99;87.25
64551;BME280;50945;44.472;-123.352;2023-04-19T08:50:07;100463.00;;;3.99;87.04
64551;BME280;50945;44.472;-123.352;2023-04-19T08:52:36;100465.00;;;3.97;87.34
64551;BME280;50945;44.472;-123.352;2023-04-19T08:55:07;100465.97;;;3.96;86.79
64551;BME280;50945;44.472;-123.352;2023-04-19T08:57:34;100475.09;;;3.95;86.54
64551;BME280;50945;44.472;-123.352;2023-04-19T09:00:02;100475.38;;;3.92;87.29
64551;BME280;50945;44.472;-123.352;2023-04-19T09:02:45;100466.41;;;3.91;87.04
64551;BME280;50945;44.472;-123.352;2023-04-19T09:05:13;100470.94;;;3.91;87.27
64551;BME280;50945;44.472;-123.352;2023-04-19T09:07:40;100463.72;;;3.91;86.87
64551;BME280;50945;44.472;-123.352;2023-04-19T09:10:12;100459.41;;;3.89;86.83
64551;BME280;50945;44.472;-123.352;2023-04-19T09:12:39;100473.06;;;3.87;87.08
64551;BME280;50945;44.472;-123.352;2023-04-19T09:15:07;100468.69;;;3.86;86.81
64551;BME280;50945;44.472;-123.352;2023-04-19T09:17:38;100468.69;;;3.86;86.93
64551;BME280;50945;44.472;-123.352;2023-04-19T09:20:05;100478.06;;;3.82;86.98
64551;BME280;50945;44.472;-123.352;2023-04-19T09:22:32;100471.78;;;3.81;86.72
64551;BME280;50945;44.472;-123.352;2023-04-19T09:24:59;100475.38;;;3.82;86.51
64551;BME280;50945;44.472;-123.352;2023-04-19T09:27:29;100478.06;;;3.82;86.67
64551;BME280;50945;44.472;-123.352;2023-04-19T09:29:58;100477.19;;;3.81;86.81
64551;BME280;50945;44.472;-123.352;2023-04-19T09:32:25;100482.59;;;3.81;87.11
64551;BME280;50945;44.472;-123.352;2023-04-19T09:34:56;100488.16;;;3.80;86.76
64551;BME280;50945;44.472;-123.352;2023-04-19T09:37:23;100491.16;;;3.77;86.64
64551;BME280;50945;44.472;-123.352;2023-04-19T09:39:50;100488.44;;;3.77;86.87
64551;BME280;50945;44.472;-123.352;2023-04-19T09:42:17;100484.72;;;3.78;86.84
64551;BME280;50945;44.472;-123.352;2023-04-19T09:45:00;100483.44;;;3.72;87.37
64551;BME280;50945;44.472;-123.352;2023-04-19T09:47:27;100485.81;;;3.66;87.57
64551;BME280;50945;44.472;-123.352;2023-04-19T09:50:10;100492.91;;;3.57;88.25
64551;BME280;50945;44.472;-123.352;2023-04-19T09:52:37;100487.59;;;3.46;88.33
64551;BME280;50945;44.472;-123.352;2023-04-19T09:55:05;100503.63;;;3.37;88.92
64551;BME280;50945;44.472;-123.352;2023-04-19T09:57:33;100500.50;;;3.32;88.62
64551;BME280;50945;44.472;-123.352;2023-04-19T10:00:00;100503.59;;;3.28;89.39
64551;BME280;50945;44.472;-123.352;2023-04-19T10:02:30;100513.81;;;3.24;89.33
64551;BME280;50945;44.472;-123.352;2023-04-19T10:04:58;100520.19;;;3.23;89.55
64551;BME280;50945;44.472;-123.352;2023-04-19T10:07:24;100517.63;;;3.21;91.78
64551;BME280;50945;44.472;-123.352;2023-04-19T10:09:54;100524.88;;;3.21;90.09
64551;BME280;50945;44.472;-123.352;2023-04-19T10:12:24;100535.44;;;3.24;89.62
64551;BME280;50945;44.472;-123.352;2023-04-19T10:14:54;100548.09;;;3.23;89.03
64551;BME280;50945;44.472;-123.352;2023-04-19T10:17:23;100559.16;;;3.20;89.23
64551;BME280;50945;44.472;-123.352;2023-04-19T10:20:05;100573.63;;;3.19;89.35
64551;BME280;50945;44.472;-123.352;2023-04-19T10:22:36;100569.38;;;3.17;89.43
64551;BME280;50945;44.472;-123.352;2023-04-19T10:25:11;100559.53;;;3.16;90.21
64551;BME280;50945;44.472;-123.352;2023-04-19T10:27:39;100554.84;;;3.18;90.01
64551;BME280;50945;44.472;-123.352;2023-04-19T10:30:06;100544.91;;;3.18;90.91
64551;BME280;50945;44.472;-123.352;2023-04-19T10:32:44;100562.22;;;3.16;90.07
64551;BME280;50945;44.472;-123.352;2023-04-19T10:35:19;100562.53;;;3.13;90.82
64551;BME280;50945;44.472;-123.352;2023-04-19T10:38:14;100572.44;;;3.12;92.11
64551;BME280;50945;44.472;-123.352;2023-04-19T10:43:17;100577.97;;;3.11;90.60
64551;BME280;50945;44.472;-123.352;2023-04-19T10:45:44;100581.56;;;3.11;90.37
64551;BME280;50945;44.472;-123.352;2023-04-19T10:51:27;100583.78;;;3.06;91.40
64551;BME280;50945;44.472;-123.352;2023-04-19T10:54:02;100569.69;;;3.02;90.28
64551;BME280;50945;44.472;-123.352;2023-04-19T11:01:43;100572.84;;;2.87;90.64
64551;BME280;50945;44.472;-123.352;2023-04-19T11:04:14;100580.47;;;2.81;90.34
64551;BME280;50945;44.472;-123.352;2023-04-19T11:09:29;100580.25;;;2.73;91.23
64551;BME280;50945;44.472;-123.352;2023-04-19T11:12:04;100579.41;;;2.73;91.39
64551;BME280;50945;44.472;-123.352;2023-04-19T11:14:43;100571.28;;;2.73;92.11
64551;BME280;50945;44.472;-123.352;2023-04-19T11:17:24;100580.97;;;2.75;92.13
64551;BME280;50945;44.472;-123.352;2023-04-19T11:22:40;100575.56;;;2.75;91.60
64551;BME280;50945;44.472;-123.352;2023-04-19T11:27:37;100589.94;;;2.76;91.19
64551;BME280;50945;44.472;-123.352;2023-04-19T11:32:47;100595.34;;;2.76;91.65
64551;BME280;50945;44.472;-123.352;2023-04-19T11:35:14;100590.78;;;2.76;91.65
64551;BME280;50945;44.472;-123.352;2023-04-19T11:37:40;100591.75;;;2.75;91.22
64551;BME280;50945;44.472;-123.352;2023-04-19T11:40:07;100595.34;;;2.76;91.38
64551;BME280;50945;44.472;-123.352;2023-04-19T11:42:34;100597.03;;;2.77;91.30
64551;BME280;50945;44.472;-123.352;2023-04-19T11:45:01;100596.78;;;2.80;91.58
64551;BME280;50945;44.472;-123.352;2023-04-19T11:47:27;100601.22;;;2.81;91.22
64551;BME280;50945;44.472;-123.352;2023-04-19T11:49:54;100595.94;;;2.79;91.54
64551;BME280;50945;44.472;-123.352;2023-04-19T11:52:25;100592.25;;;2.80;91.45
64551;BME280;50945;44.472;-123.352;2023-04-19T11:54:51;100599.25;;;2.83;91.64
64551;BME280;50945;44.472;-123.352;2023-04-19T11:57:31;100596.66;;;2.81;91.90
64551;BME280;50945;44.472;-123.352;2023-04-19T12:00:07;100595.81;;;2.81;91.61
64551;BME280;50945;44.472;-123.352;2023-04-19T12:02:38;100602.19;;;2.80;91.67
64551;BME280;50945;44.472;-123.352;2023-04-19T12:05:09;100603.91;;;2.81;91.43
64551;BME280;50945;44.472;-123.352;2023-04-19T12:07:35;100591.63;;;2.77;91.05
64551;BME280;50945;44.472;-123.352;2023-04-19T12:10:09;100601.59;;;2.76;90.94
64551;BME280;50945;44.472;-123.352;2023-04-19T12:12:36;100597.16;;;2.75;90.83
64551;BME280;50945;44.472;-123.352;2023-04-19T12:15:04;100604.41;;;2.75;91.16
64551;BME280;50945;44.472;-123.352;2023-04-19T12:17:31;100609.94;;;2.73;91.37
64551;BME280;50945;44.472;-123.352;2023-04-19T12:19:57;100607.34;;;2.72;91.60
64551;BME280;50945;44.472;-123.352;2023-04-19T12:22:23;100620.84;;;2.72;91.37
64551;BME280;50945;44.472;-123.352;2023-04-19T12:24:53;100630.56;;;2.74;91.90
64551;BME280;50945;44.472;-123.352;2023-04-19T12:27:20;100643.94;;;2.76;91.67
64551;BME280;50945;44.472;-123.352;2023-04-19T12:29:47;100642.94;;;2.77;91.71
64551;BME280;50945;44.472;-123.352;2023-04-19T12:32:13;100643.81;;;2.77;91.71
64551;BME280;50945;44.472;-123.352;2023-04-19T12:34:40;100641.97;;;2.78;92.03
64551;BME280;50945;44.472;-123.352;2023-04-19T12:37:07;100641.84;;;2.79;91.73
64551;BME280;50945;44.472;-123.352;2023-04-19T12:39:33;100655.94;;;2.83;91.80
64551;BME280;50945;44.472;-123.352;2023-04-19T12:41:59;100659.38;;;2.85;92.20
64551;BME280;50945;44.472;-123.352;2023-04-19T12:44:25;100675.19;;;2.90;92.23
64551;BME280;50945;44.472;-123.352;2023-04-19T12:46:51;100670.41;;;2.93;92.09
64551;BME280;50945;44.472;-123.352;2023-04-19T12:49:22;100672.09;;;2.94;91.53
64551;BME280;50945;44.472;-123.352;2023-04-19T12:51:48;100672.09;;;2.94;91.38
64551;BME280;50945;44.472;-123.352;2023-04-19T12:54:14;100662.66;;;2.89;91.22